createdAt,value
2022-09-10T00:00:01.183Z,99.99
2022-09-10T00:01:01.006Z,99.99
2022-09-10T00:02:00.933Z,99.99
2022-09-10T00:03:01.038Z,99.99
2022-09-10T00:04:00.853Z,99.99
2022-09-10T00:05:00.905Z,99.99
2022-09-10T00:06:00.855Z,99.99
2022-09-10T00:07:01.004Z,99.99
2022-09-10T00:08:00.844Z,99.99
2022-09-10T00:09:00.789Z,99.99
2022-09-10T00:10:00.920Z,99.99
2022-09-10T00:11:01.019Z,99.99
2022-09-10T00:12:00.860Z,99.99
2022-09-10T00:13:00.738Z,99.99
2022-09-10T00:14:00.849Z,99.99
2022-09-10T00:15:00.708Z,99.99
2022-09-10T00:16:00.996Z,99.99
2022-09-10T00:17:00.683Z,99.99
2022-09-10T00:18:00.839Z,99.99
2022-09-10T00:19:00.679Z,99.99
2022-09-10T00:20:00.829Z,99.99
2022-09-10T00:21:00.701Z,99.99
2022-09-10T00:22:00.661Z,99.99
2022-09-10T00:23:00.695Z,99.99
2022-09-10T00:24:00.595Z,99.99
2022-09-10T00:25:03.127Z,99.99
2022-09-10T00:26:00.564Z,99.99
2022-09-10T00:27:00.614Z,99.99
2022-09-10T00:28:00.534Z,99.99
2022-09-10T00:29:00.684Z,99.99
2022-09-10T00:30:00.544Z,99.99
2022-09-10T00:31:00.564Z,99.99
2022-09-10T00:32:00.595Z,99.99
2022-09-10T00:33:00.684Z,99.99
2022-09-10T00:34:00.524Z,99.99
2022-09-10T00:35:00.434Z,99.99
2022-09-10T00:36:00.528Z,99.99
2022-09-10T00:37:00.409Z,99.99
2022-09-10T00:38:00.599Z,99.99
2022-09-10T00:39:00.379Z,99.99
2022-09-10T00:40:00.613Z,99.99
2022-09-10T00:41:00.500Z,99.99
2022-09-10T00:42:00.531Z,99.99
2022-09-10T00:43:00.440Z,99.99
2022-09-10T00:44:00.519Z,99.99
2022-09-10T00:45:00.384Z,99.99
2022-09-10T00:46:00.570Z,99.99
2022-09-10T00:47:00.369Z,99.99
2022-09-10T00:48:00.319Z,99.99
2022-09-10T00:49:00.374Z,99.99
2022-09-10T00:50:00.244Z,99.99
2022-09-10T00:51:00.384Z,99.99
2022-09-10T00:52:00.205Z,99.99
2022-09-10T00:53:00.364Z,99.99
2022-09-10T00:54:00.296Z,99.99
2022-09-10T00:55:00.176Z,99.99
2022-09-10T00:56:00.204Z,99.99
2022-09-10T00:57:00.364Z,99.99
2022-09-10T00:58:00.205Z,99.99
2022-09-10T00:59:00.118Z,99.99
2022-09-10T01:00:00.284Z,99.99
2022-09-10T01:01:00.181Z,99.99
2022-09-10T01:02:00.270Z,99.99
2022-09-10T01:03:00.080Z,99.99
2022-09-10T01:04:00.060Z,99.99
2022-09-10T01:05:00.068Z,99.99
2022-09-10T01:06:00.280Z,99.99
2022-09-10T01:07:00.074Z,99.99
2022-09-10T01:07:59.999Z,99.99
2022-09-10T01:09:00.049Z,99.99
2022-09-10T01:09:59.979Z,99.99
2022-09-10T01:11:00.120Z,99.99
2022-09-10T01:11:59.939Z,99.99
2022-09-10T01:13:00.059Z,99.99
2022-09-10T01:13:59.919Z,99.99
2022-09-10T01:14:59.914Z,99.99
2022-09-10T01:15:59.968Z,99.99
2022-09-10T01:16:59.944Z,99.99
2022-09-10T01:17:59.885Z,99.99
2022-09-10T01:18:59.864Z,99.99
2022-09-10T01:19:59.894Z,99.99
2022-09-10T01:21:00.044Z,99.99
2022-09-10T01:21:59.905Z,99.99
2022-09-10T01:22:59.795Z,99.99
2022-09-10T01:23:59.895Z,99.99
2022-09-10T01:24:59.764Z,99.99
2022-09-10T01:25:59.888Z,99.99
2022-09-10T01:26:59.813Z,99.99
2022-09-10T01:27:59.883Z,99.99
2022-09-10T01:28:59.749Z,99.99
2022-09-10T01:29:59.709Z,99.99
2022-09-10T01:30:59.730Z,99.99
2022-09-10T01:31:59.900Z,99.99
2022-09-10T01:32:59.750Z,99.99
2022-09-10T01:33:59.639Z,99.99
2022-09-10T01:34:59.739Z,99.99
2022-09-10T01:35:59.894Z,99.99
2022-09-10T01:36:59.739Z,99.99
2022-09-10T01:37:59.618Z,99.99
2022-09-10T01:38:59.659Z,99.99
2022-09-10T01:39:59.613Z,99.99
2022-09-10T01:40:59.559Z,99.99
2022-09-10T01:41:59.574Z,99.99
2022-09-10T01:42:59.534Z,99.99
2022-09-10T01:43:59.589Z,99.99
2022-09-10T01:44:59.802Z,99.99
2022-09-10T01:45:59.595Z,99.99
2022-09-10T01:46:59.467Z,99.99
2022-09-10T01:47:59.558Z,99.99
2022-09-10T01:48:59.454Z,99.99
2022-09-10T01:49:59.484Z,99.99
2022-09-10T01:50:59.417Z,99.99
2022-09-10T01:51:59.394Z,99.99
2022-09-10T01:52:59.405Z,99.99
2022-09-10T01:53:59.354Z,99.99
2022-09-10T01:54:59.473Z,99.99
2022-09-10T01:55:59.559Z,99.99
2022-09-10T01:56:59.422Z,99.99
2022-09-10T01:57:59.588Z,99.99
2022-09-10T01:58:59.420Z,99.99
2022-09-10T01:59:59.300Z,99.99
2022-09-10T02:00:59.572Z,99.99
2022-09-10T02:01:59.310Z,99.99
2022-09-10T02:02:59.250Z,99.99
2022-09-10T02:03:59.259Z,99.99
2022-09-10T02:04:59.239Z,99.99
2022-09-10T02:05:59.319Z,99.99
2022-09-10T02:06:59.410Z,99.99
2022-09-10T02:07:59.250Z,99.99
2022-09-10T02:08:59.184Z,99.99
2022-09-10T02:09:59.245Z,99.99
2022-09-10T02:10:59.155Z,99.99
2022-09-10T02:11:59.334Z,99.99
2022-09-10T02:12:59.107Z,99.99
2022-09-10T02:13:59.248Z,99.99
2022-09-10T02:14:59.097Z,99.99
2022-09-10T02:15:59.117Z,99.99
2022-09-10T02:16:59.085Z,99.99
2022-09-10T02:17:59.325Z,99.99
2022-09-10T02:18:59.095Z,99.99
2022-09-10T02:19:59.024Z,99.99
2022-09-10T02:20:59.084Z,99.99
2022-09-10T02:21:59.254Z,99.99
2022-09-10T02:22:59.101Z,99.99
2022-09-10T02:23:59.054Z,99.99
2022-09-10T02:24:59.099Z,99.99
2022-09-10T02:25:58.999Z,99.99
2022-09-10T02:26:58.930Z,99.99
2022-09-10T02:27:58.930Z,99.99
2022-09-10T02:28:59.160Z,99.99
2022-09-10T02:29:58.903Z,99.99
2022-09-10T02:30:59.100Z,99.99
2022-09-10T02:31:58.919Z,99.99
2022-09-10T02:32:58.849Z,99.99
2022-09-10T02:33:58.919Z,99.99
2022-09-10T02:34:58.870Z,99.99
2022-09-10T02:35:58.924Z,99.99
2022-09-10T02:36:58.824Z,99.99
2022-09-10T02:37:58.945Z,99.99
2022-09-10T02:38:58.773Z,99.99
2022-09-10T02:39:59.017Z,99.99
2022-09-10T02:40:58.848Z,99.99
2022-09-10T02:41:58.935Z,99.99
2022-09-10T02:42:58.777Z,99.99
2022-09-10T02:43:58.695Z,99.99
2022-09-10T02:44:58.766Z,99.99
2022-09-10T02:45:58.784Z,99.99
2022-09-10T02:46:58.764Z,99.99
2022-09-10T02:47:58.655Z,99.99
2022-09-10T02:48:58.763Z,99.99
2022-09-10T02:49:58.624Z,99.99
2022-09-10T02:50:58.620Z,99.99
2022-09-10T02:51:58.681Z,99.99
2022-09-10T02:52:58.769Z,99.99
2022-09-10T02:53:58.622Z,99.99
2022-09-10T02:54:58.770Z,99.99
2022-09-10T02:55:58.613Z,99.99
2022-09-10T02:56:58.519Z,99.99
2022-09-10T02:57:58.669Z,99.99
2022-09-10T02:58:58.500Z,99.99
2022-09-10T02:59:58.622Z,99.99
2022-09-10T03:00:58.522Z,99.99
2022-09-10T03:01:58.666Z,99.99
2022-09-10T03:03:02.814Z,99.99
2022-09-10T03:03:58.698Z,99.99
2022-09-10T03:04:58.456Z,99.99
2022-09-10T03:05:58.404Z,99.99
2022-09-10T03:06:58.445Z,99.99
2022-09-10T03:07:58.615Z,99.99
2022-09-10T03:08:58.526Z,99.99
2022-09-10T03:09:58.344Z,99.99
2022-09-10T03:10:58.444Z,99.99
2022-09-10T03:11:58.617Z,99.99
2022-09-10T03:12:58.446Z,99.99
2022-09-10T03:13:58.333Z,99.99
2022-09-10T03:14:58.464Z,99.99
2022-09-10T03:15:58.367Z,99.99
2022-09-10T03:16:58.468Z,99.99
2022-09-10T03:17:58.289Z,99.99
2022-09-10T03:18:58.449Z,99.99
2022-09-10T03:19:58.311Z,99.99
2022-09-10T03:20:58.520Z,99.99
2022-09-10T03:21:58.309Z,99.99
2022-09-10T03:22:58.170Z,99.99
2022-09-10T03:23:58.310Z,99.99
2022-09-10T03:24:58.150Z,99.99
2022-09-10T03:25:58.309Z,99.99
2022-09-10T03:26:58.130Z,99.99
2022-09-10T03:27:58.290Z,99.99
2022-09-10T03:28:58.151Z,99.99
2022-09-10T03:29:58.290Z,99.99
2022-09-10T03:30:58.174Z,99.99
2022-09-10T03:31:58.364Z,99.99
2022-09-10T03:32:58.133Z,99.99
2022-09-10T03:33:58.024Z,99.99
2022-09-10T03:34:58.158Z,99.99
2022-09-10T03:35:57.995Z,99.99
2022-09-10T03:36:58.124Z,99.99
2022-09-10T03:37:58.055Z,99.99
2022-09-10T03:38:57.955Z,99.99
2022-09-10T03:39:58.069Z,99.99
2022-09-10T03:40:58.131Z,99.99
2022-09-10T03:41:57.974Z,99.99
2022-09-10T03:42:57.953Z,99.99
2022-09-10T03:43:57.964Z,99.99
2022-09-10T03:44:57.879Z,99.99
2022-09-10T03:45:58.065Z,99.99
2022-09-10T03:46:57.858Z,99.99
2022-09-10T03:47:58.308Z,99.99
2022-09-10T03:48:57.830Z,99.99
2022-09-10T03:49:57.808Z,99.99
2022-09-10T03:50:57.811Z,99.99
2022-09-10T03:51:57.779Z,99.99
2022-09-10T03:52:57.808Z,99.99
2022-09-10T03:53:57.812Z,99.99
2022-09-10T03:54:57.810Z,99.99
2022-09-10T03:55:57.720Z,99.99
2022-09-10T03:56:57.708Z,99.99
2022-09-10T03:57:57.704Z,99.99
2022-09-10T03:58:57.880Z,99.99
2022-09-10T03:59:57.973Z,99.99
2022-09-10T04:00:57.675Z,99.99
2022-09-10T04:01:57.703Z,99.99
2022-09-10T04:02:57.625Z,99.99
2022-09-10T04:03:57.723Z,99.99
2022-09-10T04:04:57.604Z,99.99
2022-09-10T04:05:57.655Z,99.99
2022-09-10T04:06:57.573Z,99.99
2022-09-10T04:07:57.643Z,99.99
2022-09-10T04:08:57.606Z,99.99
2022-09-10T04:09:57.644Z,99.99
2022-09-10T04:10:57.814Z,99.99
2022-09-10T04:11:57.670Z,99.99
2022-09-10T04:12:57.500Z,99.99
2022-09-10T04:13:57.649Z,99.99
2022-09-10T04:14:57.568Z,99.99
2022-09-10T04:15:57.460Z,99.99
2022-09-10T04:16:57.498Z,99.99
2022-09-10T04:17:57.649Z,99.99
2022-09-10T04:18:57.489Z,99.99
2022-09-10T04:19:57.720Z,99.99
2022-09-10T04:20:57.479Z,99.99
2022-09-10T04:21:57.639Z,99.99
2022-09-10T04:22:57.478Z,99.99
2022-09-10T04:23:57.341Z,99.99
2022-09-10T04:24:57.308Z,99.99
2022-09-10T04:25:57.406Z,99.99
2022-09-10T04:26:57.333Z,99.99
2022-09-10T04:27:57.324Z,99.99
2022-09-10T04:28:57.495Z,99.99
2022-09-10T04:29:57.335Z,99.99
2022-09-10T04:30:57.495Z,99.99
2022-09-10T04:31:57.420Z,99.99
2022-09-10T04:32:57.483Z,99.99
2022-09-10T04:33:57.332Z,99.99
2022-09-10T04:34:57.183Z,99.99
2022-09-10T04:35:57.175Z,99.99
2022-09-10T04:36:57.264Z,99.99
2022-09-10T04:37:57.155Z,99.99
2022-09-10T04:38:57.155Z,99.99
2022-09-10T04:39:57.363Z,99.99
2022-09-10T04:40:57.168Z,99.99
2022-09-10T04:41:57.338Z,99.99
2022-09-10T04:42:57.241Z,99.99
2022-09-10T04:43:57.069Z,99.99
2022-09-10T04:44:57.170Z,99.99
2022-09-10T04:45:57.113Z,99.99
2022-09-10T04:46:57.030Z,99.99
2022-09-10T04:47:57.008Z,99.99
2022-09-10T04:48:57.070Z,99.99
2022-09-10T04:49:57.000Z,99.99
2022-09-10T04:51:15.314Z,99.99
2022-09-10T04:51:57.010Z,99.99
2022-09-10T04:52:56.940Z,99.99
2022-09-10T04:53:57.094Z,99.99
2022-09-10T04:54:56.914Z,99.99
2022-09-10T04:55:57.004Z,99.99
2022-09-10T04:56:56.893Z,99.99
2022-09-10T04:57:57.014Z,99.99
2022-09-10T04:58:56.864Z,99.99
2022-09-10T04:59:57.094Z,99.99
2022-09-10T05:00:56.906Z,99.99
2022-09-10T05:01:57.043Z,99.99
2022-09-10T05:02:56.805Z,99.99
2022-09-10T05:03:56.794Z,99.99
2022-09-10T05:04:56.854Z,99.99
2022-09-10T05:05:57.073Z,99.99
2022-09-10T05:06:56.860Z,99.99
2022-09-10T05:07:56.760Z,99.99
2022-09-10T05:08:56.858Z,99.99
2022-09-10T05:09:56.708Z,99.99
2022-09-10T05:10:56.828Z,99.99
2022-09-10T05:11:56.689Z,99.99
2022-09-10T05:12:56.850Z,99.99
2022-09-10T05:13:56.759Z,99.99
2022-09-10T05:14:56.640Z,99.99
2022-09-10T05:15:56.679Z,99.99
2022-09-10T05:16:56.945Z,99.99
2022-09-10T05:17:56.598Z,99.99
2022-09-10T05:18:56.580Z,99.99
2022-09-10T05:19:56.689Z,99.99
2022-09-10T05:20:56.560Z,99.99
2022-09-10T05:21:56.557Z,99.99
2022-09-10T05:22:56.624Z,99.99
2022-09-10T05:23:56.703Z,99.99
2022-09-10T05:24:56.535Z,99.99
2022-09-10T05:25:56.704Z,99.99
2022-09-10T05:26:56.535Z,99.99
2022-09-10T05:27:56.526Z,99.99
2022-09-10T05:28:56.524Z,99.99
2022-09-10T05:29:56.443Z,99.99
2022-09-10T05:30:56.426Z,99.99
2022-09-10T05:31:56.768Z,99.99
2022-09-10T05:32:56.613Z,99.99
2022-09-10T05:33:56.376Z,99.99
2022-09-10T05:34:56.372Z,99.99
2022-09-10T05:35:56.380Z,99.99
2022-09-10T05:36:56.759Z,99.99
2022-09-10T05:37:56.469Z,99.99
2022-09-10T05:38:56.541Z,99.99
2022-09-10T05:39:56.447Z,99.99
2022-09-10T05:40:56.290Z,99.99
2022-09-10T05:41:56.470Z,97.34
2022-09-10T05:42:56.529Z,96.83
2022-09-10T05:43:56.438Z,93.16
2022-09-10T05:44:56.230Z,92.21
2022-09-10T05:45:56.241Z,90.73
2022-09-10T05:46:56.213Z,90.73
2022-09-10T05:47:56.359Z,87.84
2022-09-10T05:48:56.225Z,86.15
2022-09-10T05:49:56.443Z,84.35
2022-09-10T05:50:56.213Z,81.73
2022-09-10T05:51:56.135Z,83.02
2022-09-10T05:52:56.204Z,82.98
2022-09-10T05:53:56.363Z,82.16
2022-09-10T05:54:56.305Z,81.35
2022-09-10T05:55:56.086Z,81.99
2022-09-10T05:56:56.208Z,81.52
2022-09-10T05:57:56.053Z,80.04
2022-09-10T05:58:56.204Z,79.33
2022-09-10T05:59:56.044Z,80.05
2022-09-10T06:00:56.273Z,79.06
2022-09-10T06:01:56.144Z,78.29
2022-09-10T06:02:56.053Z,76.71
2022-09-10T06:03:56.049Z,75.27
2022-09-10T06:04:55.960Z,75.20
2022-09-10T06:05:56.158Z,72.86
2022-09-10T06:06:55.940Z,72.53
2022-09-10T06:07:55.920Z,72.29
2022-09-10T06:08:55.909Z,72.76
2022-09-10T06:09:55.888Z,70.56
2022-09-10T06:10:55.888Z,71.49
2022-09-10T06:11:55.928Z,70.46
2022-09-10T06:12:55.879Z,69.16
2022-09-10T06:13:56.056Z,68.23
2022-09-10T06:14:55.894Z,68.79
2022-09-10T06:15:55.814Z,65.80
2022-09-10T06:16:55.957Z,66.36
2022-09-10T06:17:55.794Z,69.32
2022-09-10T06:18:55.885Z,68.86
2022-09-10T06:19:55.753Z,67.63
2022-09-10T06:20:55.884Z,68.20
2022-09-10T06:21:55.822Z,66.20
2022-09-10T06:22:55.903Z,66.08
2022-09-10T06:23:55.733Z,66.74
2022-09-10T06:24:55.884Z,63.59
2022-09-10T06:25:55.739Z,64.45
2022-09-10T06:26:55.750Z,65.15
2022-09-10T06:27:55.728Z,66.81
2022-09-10T06:28:55.898Z,67.24
2022-09-10T06:29:55.749Z,68.70
2022-09-10T06:30:55.879Z,71.73
2022-09-10T06:31:55.805Z,73.86
2022-09-10T06:32:55.630Z,72.80
2022-09-10T06:33:55.568Z,72.86
2022-09-10T06:34:55.569Z,69.92
2022-09-10T06:35:55.549Z,67.07
2022-09-10T06:36:55.571Z,67.20
2022-09-10T06:37:55.589Z,66.01
2022-09-10T06:38:55.573Z,65.84
2022-09-10T06:39:55.570Z,66.40
2022-09-10T06:40:55.563Z,67.10
2022-09-10T06:41:55.474Z,66.93
2022-09-10T06:42:55.653Z,68.73
2022-09-10T06:43:55.454Z,69.13
2022-09-10T06:44:55.564Z,67.66
2022-09-10T06:45:55.474Z,71.79
2022-09-10T06:47:46.256Z,73.80
2022-09-10T06:48:42.238Z,72.36
2022-09-10T06:48:55.736Z,70.12
2022-09-10T06:49:55.500Z,68.76
2022-09-10T06:50:55.338Z,63.03
2022-09-10T06:51:55.409Z,63.46
2022-09-10T06:52:55.310Z,60.75
2022-09-10T06:53:55.478Z,62.61
2022-09-10T06:54:55.388Z,61.75
2022-09-10T06:55:55.408Z,61.85
2022-09-10T06:56:55.249Z,62.63
2022-09-10T06:57:55.230Z,65.14
2022-09-10T06:58:57.525Z,67.43
2022-09-10T06:59:55.234Z,68.56
2022-09-10T07:00:55.354Z,68.43
2022-09-10T07:01:55.255Z,68.37
2022-09-10T07:02:55.253Z,64.69
2022-09-10T07:03:55.164Z,62.78
2022-09-10T07:04:55.246Z,61.56
2022-09-10T07:05:55.204Z,61.43
2022-09-10T07:06:55.245Z,61.32
2022-09-10T07:07:55.406Z,65.15
2022-09-10T07:08:55.108Z,68.23
2022-09-10T07:09:55.103Z,69.26
2022-09-10T07:10:55.070Z,71.46
2022-09-10T07:11:55.160Z,71.53
2022-09-10T07:12:55.240Z,70.19
2022-09-10T07:13:55.099Z,74.73
2022-09-10T07:14:55.020Z,76.28
2022-09-10T07:15:55.142Z,77.15
2022-09-10T07:16:55.250Z,79.09
2022-09-10T07:17:55.159Z,80.50
2022-09-10T07:18:55.250Z,80.63
2022-09-10T07:19:55.095Z,82.34
2022-09-10T07:20:54.934Z,82.89
2022-09-10T07:21:54.932Z,83.39
2022-09-10T07:22:54.943Z,83.03
2022-09-10T07:23:54.953Z,83.39
2022-09-10T07:24:54.933Z,79.62
2022-09-10T07:25:55.096Z,74.02
2022-09-10T07:26:54.923Z,71.09
2022-09-10T07:27:55.083Z,69.02
2022-09-10T07:28:55.004Z,71.42
2022-09-10T07:29:55.102Z,71.03
2022-09-10T07:30:55.060Z,73.56
2022-09-10T07:31:54.831Z,73.16
2022-09-10T07:32:54.809Z,75.73
2022-09-10T07:33:54.840Z,75.50
2022-09-10T07:34:54.749Z,77.14
2022-09-10T07:35:54.771Z,77.84
2022-09-10T07:36:54.929Z,76.37
2022-09-10T07:37:54.800Z,77.08
2022-09-10T07:38:54.700Z,76.78
2022-09-10T07:39:54.886Z,77.01
2022-09-10T07:40:54.939Z,77.65
2022-09-10T07:41:54.785Z,80.30
2022-09-10T07:42:54.675Z,80.30
2022-09-10T07:43:54.775Z,77.48
2022-09-10T07:44:54.684Z,79.29
2022-09-10T07:45:54.673Z,79.19
2022-09-10T07:46:54.605Z,77.32
2022-09-10T07:47:54.795Z,78.93
2022-09-10T07:48:54.617Z,78.66
2022-09-10T07:49:54.554Z,81.12
2022-09-10T07:50:54.684Z,80.55
2022-09-10T07:51:59.693Z,81.09
2022-09-10T07:52:54.621Z,82.74
2022-09-10T07:53:54.488Z,83.84
2022-09-10T07:54:54.609Z,82.88
2022-09-10T07:55:54.460Z,84.19
2022-09-10T07:56:54.509Z,81.98
2022-09-10T07:57:57.251Z,83.69
2022-09-10T07:58:54.599Z,81.98
2022-09-10T07:59:54.449Z,83.48
2022-09-10T08:00:54.389Z,84.09
2022-09-10T08:01:54.507Z,84.59
2022-09-10T08:02:54.680Z,84.75
2022-09-10T08:03:54.453Z,85.56
2022-09-10T08:04:54.355Z,83.00
2022-09-10T08:05:54.464Z,82.30
2022-09-10T08:06:54.614Z,82.10
2022-09-10T08:07:54.535Z,82.40
2022-09-10T08:08:54.311Z,80.39
2022-09-10T08:09:54.454Z,79.85
2022-09-10T08:10:54.307Z,81.65
2022-09-10T08:11:54.244Z,80.95
2022-09-10T08:12:54.285Z,80.11
2022-09-10T08:13:54.284Z,78.40
2022-09-10T08:14:54.299Z,79.00
2022-09-10T08:15:54.228Z,78.60
2022-09-10T08:16:54.301Z,78.20
2022-09-10T08:17:54.455Z,76.76
2022-09-10T08:18:54.210Z,76.86
2022-09-10T08:19:54.150Z,77.89
2022-09-10T08:20:54.128Z,76.11
2022-09-10T08:21:54.129Z,76.37
2022-09-10T08:22:54.291Z,75.96
2022-09-10T08:23:54.129Z,73.19
2022-09-10T08:24:54.359Z,71.96
2022-09-10T08:25:54.124Z,71.19
2022-09-10T08:26:54.048Z,71.33
2022-09-10T08:27:54.029Z,72.19
2022-09-10T08:28:54.284Z,73.00
2022-09-10T08:29:54.197Z,74.13
2022-09-10T08:30:54.025Z,73.63
2022-09-10T08:31:53.974Z,74.77
2022-09-10T08:32:53.955Z,74.27
2022-09-10T08:33:53.954Z,75.21
2022-09-10T08:34:54.055Z,74.04
2022-09-10T08:35:53.914Z,77.25
2022-09-10T08:36:53.978Z,75.27
2022-09-10T08:37:53.901Z,78.42
2022-09-10T08:38:58.295Z,80.77
2022-09-10T08:39:54.189Z,81.27
2022-09-10T08:40:54.059Z,81.92
2022-09-10T08:41:54.149Z,81.82
2022-09-10T08:42:53.969Z,82.36
2022-09-10T08:43:53.870Z,82.56
2022-09-10T08:44:53.969Z,83.67
2022-09-10T08:45:53.953Z,85.48
2022-09-10T08:46:53.984Z,84.27
2022-09-10T08:47:53.834Z,85.17
2022-09-10T08:48:53.755Z,85.38
2022-09-10T08:49:53.816Z,84.07
2022-09-10T08:50:53.724Z,84.88
2022-09-10T08:51:53.759Z,84.67
2022-09-10T08:52:53.686Z,86.28
2022-09-10T08:53:53.794Z,86.08
2022-09-10T08:54:53.975Z,86.08
2022-09-10T08:55:53.805Z,86.04
2022-09-10T08:56:53.735Z,84.53
2022-09-10T08:57:53.820Z,83.15
2022-09-10T08:58:53.651Z,80.96
2022-09-10T08:59:53.829Z,79.44
2022-09-10T09:00:53.588Z,78.60
2022-09-10T09:01:53.729Z,78.00
2022-09-10T09:02:53.678Z,76.20
2022-09-10T09:03:53.619Z,76.26
2022-09-10T09:04:53.529Z,73.39
2022-09-10T09:05:53.499Z,73.90
2022-09-10T09:06:53.489Z,74.07
2022-09-10T09:07:53.511Z,76.41
2022-09-10T09:08:53.735Z,76.34
2022-09-10T09:09:53.497Z,77.19
2022-09-10T09:10:53.453Z,80.24
2022-09-10T09:11:53.494Z,79.27
2022-09-10T09:12:53.427Z,79.71
2022-09-10T09:13:53.415Z,81.72
2022-09-10T09:14:53.444Z,81.85
2022-09-10T09:15:53.644Z,82.10
2022-09-10T09:16:53.643Z,82.34
2022-09-10T09:17:53.484Z,83.28
2022-09-10T09:18:53.340Z,86.41
2022-09-10T09:19:53.508Z,85.84
2022-09-10T09:20:53.349Z,86.58
2022-09-10T09:21:53.358Z,86.99
2022-09-10T09:22:53.330Z,87.40
2022-09-10T09:24:12.307Z,90.06
2022-09-10T09:24:53.350Z,90.46
2022-09-10T09:25:53.246Z,88.79
2022-09-10T09:26:53.668Z,90.10
2022-09-10T09:27:53.219Z,91.66
2022-09-10T09:28:53.328Z,93.17
2022-09-10T09:29:53.169Z,93.82
2022-09-10T09:30:53.222Z,94.83
2022-09-10T09:31:53.186Z,95.38
2022-09-10T09:32:53.353Z,96.64
2022-09-10T09:33:53.167Z,97.75
2022-09-10T09:34:53.114Z,98.66
2022-09-10T09:35:53.175Z,99.37
2022-09-10T09:36:53.333Z,99.87
2022-09-10T09:37:53.174Z,99.99
2022-09-10T09:38:53.414Z,99.99
2022-09-10T09:39:53.262Z,99.57
2022-09-10T09:40:53.055Z,98.76
2022-09-10T09:41:53.154Z,98.05
2022-09-10T09:42:53.024Z,97.75
2022-09-10T09:43:53.013Z,98.36
2022-09-10T09:44:57.017Z,98.40
2022-09-10T09:45:53.218Z,98.81
2022-09-10T09:46:53.009Z,99.26
2022-09-10T09:47:52.964Z,99.97
2022-09-10T09:48:53.019Z,99.99
2022-09-10T09:49:53.238Z,99.99
2022-09-10T09:50:53.025Z,99.99
2022-09-10T09:51:52.879Z,98.75
2022-09-10T09:52:53.031Z,98.40
2022-09-10T09:54:12.216Z,99.21
2022-09-10T09:55:52.922Z,96.13
2022-09-10T09:56:52.813Z,90.63
2022-09-10T09:57:52.843Z,93.12
2022-09-10T09:58:52.784Z,93.27
2022-09-10T09:59:52.854Z,92.62
2022-09-10T10:00:53.003Z,92.18
2022-09-10T10:01:53.075Z,89.87
2022-09-10T10:02:52.715Z,90.07
2022-09-10T10:03:52.845Z,89.93
2022-09-10T10:04:52.698Z,88.02
2022-09-10T10:05:52.862Z,89.89
2022-09-10T10:06:52.760Z,87.27
2022-09-10T10:07:52.685Z,88.28
2022-09-10T10:08:52.688Z,90.15
2022-09-10T10:09:52.850Z,84.39
2022-09-10T10:10:52.689Z,86.96
2022-09-10T10:11:52.849Z,84.15
2022-09-10T10:12:52.774Z,83.21
2022-09-10T10:13:52.579Z,82.06
2022-09-10T10:14:52.687Z,82.97
2022-09-10T10:15:52.876Z,81.70
2022-09-10T10:16:52.869Z,83.61
2022-09-10T10:17:52.554Z,82.98
2022-09-10T10:18:52.583Z,84.49
2022-09-10T10:19:52.534Z,83.39
2022-09-10T10:20:52.685Z,84.15
2022-09-10T10:21:52.526Z,85.11
2022-09-10T10:22:52.694Z,86.38
2022-09-10T10:23:52.594Z,85.25
2022-09-10T10:24:52.434Z,82.75
2022-09-10T10:25:52.524Z,78.31
2022-09-10T10:26:52.418Z,74.95
2022-09-10T10:27:52.529Z,71.15
2022-09-10T10:28:52.388Z,67.03
2022-09-10T10:29:52.439Z,68.00
2022-09-10T10:30:52.394Z,71.81
2022-09-10T10:31:52.350Z,72.28
2022-09-10T10:32:52.369Z,68.73
2022-09-10T10:33:52.319Z,69.09
2022-09-10T10:34:52.449Z,66.77
2022-09-10T10:35:52.270Z,70.32
2022-09-10T10:36:52.374Z,67.50
2022-09-10T10:37:52.554Z,70.06
2022-09-10T10:38:52.384Z,66.35
2022-09-10T10:39:52.284Z,67.80
2022-09-10T10:40:52.445Z,70.29
2022-09-10T10:41:52.203Z,69.99
2022-09-10T10:42:52.196Z,70.99
2022-09-10T10:43:52.224Z,72.89
2022-09-10T10:44:52.365Z,73.43
2022-09-10T10:45:52.263Z,75.04
2022-09-10T10:46:52.193Z,76.65
2022-09-10T10:47:52.209Z,75.41
2022-09-10T10:48:52.120Z,77.85
2022-09-10T10:49:52.231Z,78.66
2022-09-10T10:50:53.056Z,78.69
2022-09-10T10:51:52.299Z,76.95
2022-09-10T10:52:52.049Z,76.08
2022-09-10T10:53:52.040Z,76.92
2022-09-10T10:54:52.054Z,79.23
2022-09-10T10:55:52.018Z,78.03
2022-09-10T10:56:52.059Z,76.96
2022-09-10T10:57:52.076Z,79.23
2022-09-10T10:58:54.298Z,77.86
2022-09-10T10:59:51.975Z,78.27
2022-09-10T11:00:52.045Z,79.33
2022-09-10T11:01:52.059Z,78.12
2022-09-10T11:02:52.064Z,78.33
2022-09-10T11:03:51.965Z,81.34
2022-09-10T11:04:51.904Z,79.63
2022-09-10T11:05:51.894Z,79.67
2022-09-10T11:06:51.865Z,79.63
2022-09-10T11:07:51.884Z,77.72
2022-09-10T11:08:51.898Z,76.98
2022-09-10T11:09:51.903Z,75.98
2022-09-10T11:10:52.049Z,77.32
2022-09-10T11:11:51.888Z,76.56
2022-09-10T11:12:51.779Z,78.40
2022-09-10T11:13:51.892Z,79.24
2022-09-10T11:14:52.120Z,80.45
2022-09-10T11:15:51.826Z,81.19
2022-09-10T11:16:55.315Z,80.19
2022-09-10T11:17:51.910Z,81.84
2022-09-10T11:18:51.731Z,82.44
2022-09-10T11:20:05.392Z,80.73
2022-09-10T11:20:51.809Z,82.14
2022-09-10T11:21:51.898Z,83.84
2022-09-10T11:22:51.726Z,83.75
2022-09-10T11:23:51.655Z,81.99
2022-09-10T11:24:51.728Z,80.08
2022-09-10T11:25:51.887Z,83.11
2022-09-10T11:26:51.814Z,83.26
2022-09-10T11:27:51.579Z,80.85
2022-09-10T11:28:51.725Z,80.55
2022-09-10T11:29:51.565Z,79.28
2022-09-10T11:30:51.772Z,81.90
2022-09-10T11:31:51.580Z,83.65
2022-09-10T11:32:51.593Z,80.83
2022-09-10T11:33:51.579Z,83.11
2022-09-10T11:34:51.739Z,80.99
2022-09-10T11:35:51.569Z,80.81
2022-09-10T11:36:51.729Z,80.77
2022-09-10T11:37:51.579Z,78.56
2022-09-10T11:38:51.490Z,80.04
2022-09-10T11:39:51.631Z,76.89
2022-09-10T11:40:51.409Z,76.85
2022-09-10T11:41:51.408Z,77.41
2022-09-10T11:42:51.417Z,76.98
2022-09-10T11:43:51.566Z,76.37
2022-09-10T11:44:51.485Z,75.87
2022-09-10T11:45:51.336Z,75.97
2022-09-10T11:46:51.406Z,74.67
2022-09-10T11:47:51.314Z,75.74
2022-09-10T11:48:51.404Z,75.74
2022-09-10T11:49:51.284Z,77.54
2022-09-10T11:50:51.609Z,73.03
2022-09-10T11:51:51.245Z,71.26
2022-09-10T11:52:51.419Z,74.07
2022-09-10T11:53:51.261Z,72.73
2022-09-10T11:54:51.240Z,72.23
2022-09-10T11:55:51.199Z,73.77
2022-09-10T11:56:51.250Z,72.70
2022-09-10T11:57:51.259Z,73.33
2022-09-10T11:58:51.140Z,73.70
2022-09-10T11:59:51.250Z,72.20
2022-09-10T12:00:51.129Z,72.27
2022-09-10T12:01:51.298Z,74.54
2022-09-10T12:02:51.170Z,74.33
2022-09-10T12:03:51.178Z,71.66
2022-09-10T12:04:51.094Z,72.47
2022-09-10T12:05:51.239Z,73.00
2022-09-10T12:06:51.055Z,74.80
2022-09-10T12:07:51.105Z,73.80
2022-09-10T12:08:51.088Z,71.80
2022-09-10T12:09:51.009Z,73.54
2022-09-10T12:10:51.030Z,75.14
2022-09-10T12:11:51.000Z,74.94
2022-09-10T12:12:51.028Z,74.64
2022-09-10T12:13:51.058Z,75.48
2022-09-10T12:14:50.993Z,73.47
2022-09-10T12:15:50.944Z,76.58
2022-09-10T12:16:50.977Z,74.64
2022-09-10T12:17:50.857Z,73.47
2022-09-10T12:18:50.982Z,73.07
2022-09-10T12:19:50.914Z,73.47
2022-09-10T12:20:50.907Z,70.96
2022-09-10T12:21:50.821Z,72.67
2022-09-10T12:22:50.776Z,72.77
2022-09-10T12:23:50.803Z,72.06
2022-09-10T12:24:50.937Z,71.83
2022-09-10T12:25:50.785Z,72.13
2022-09-10T12:26:50.724Z,73.40
2022-09-10T12:27:50.765Z,74.97
2022-09-10T12:28:50.760Z,71.96
2022-09-10T12:29:50.799Z,72.66
2022-09-10T12:30:50.881Z,71.33
2022-09-10T12:31:50.701Z,71.63
2022-09-10T12:32:50.704Z,69.12
2022-09-10T12:33:50.699Z,68.99
2022-09-10T12:34:50.688Z,69.99
2022-09-10T12:35:50.717Z,69.46
2022-09-10T12:36:50.719Z,71.12
2022-09-10T12:37:50.637Z,67.36
2022-09-10T12:38:50.638Z,70.16
2022-09-10T12:39:50.655Z,68.89
2022-09-10T12:40:50.588Z,68.12
2022-09-10T12:41:50.671Z,70.66
2022-09-10T12:42:50.539Z,69.16
2022-09-10T12:43:50.625Z,69.76
2022-09-10T12:44:50.556Z,71.26
2022-09-10T12:45:50.575Z,70.50
2022-09-10T12:46:50.516Z,71.13
2022-09-10T12:47:50.619Z,72.33
2022-09-10T12:48:50.455Z,71.03
2022-09-10T12:49:50.467Z,70.36
2022-09-10T12:50:50.445Z,71.66
2022-09-10T12:51:50.425Z,71.26
2022-09-10T12:52:50.445Z,72.47